createdAt,value
2023-05-02T04:46:16.926Z,98524.00
2023-05-02T04:49:21.885Z,98532.75
2023-05-02T04:52:26.109Z,98531.56
2023-05-02T04:55:30.421Z,98528.38
2023-05-02T04:58:35.367Z,98536.56
2023-05-02T05:01:45.761Z,98533.16
2023-05-02T05:04:50.050Z,98541.53
2023-05-02T05:07:56.250Z,98540.34
2023-05-02T05:11:05.287Z,98536.28
2023-05-02T05:14:10.361Z,98536.94
2023-05-02T05:17:18.423Z,98542.97
2023-05-02T05:20:22.800Z,98545.31
2023-05-02T05:23:29.681Z,98553.00
2023-05-02T05:26:33.980Z,98561.38
2023-05-02T05:29:39.517Z,98564.84
2023-05-02T05:32:46.368Z,98559.03
2023-05-02T05:35:50.389Z,98571.06
2023-05-02T05:38:54.708Z,98565.41
2023-05-02T05:41:59.267Z,98568.50
2023-05-02T05:45:04.689Z,98558.09
2023-05-02T05:48:11.062Z,98556.81
2023-05-02T05:51:20.008Z,98566.09
2023-05-02T05:54:24.692Z,98558.25
2023-05-02T05:57:29.198Z,98560.09
2023-05-02T06:00:36.833Z,98575.41
2023-05-02T06:03:42.904Z,98570.19
2023-05-02T06:06:47.259Z,98578.44
2023-05-02T06:09:56.881Z,98567.97
2023-05-02T06:13:01.712Z,98579.31
2023-05-02T06:16:19.846Z,98583.63
2023-05-02T06:19:25.497Z,98592.25
2023-05-02T06:22:30.199Z,98588.19
2023-05-02T06:25:35.041Z,98588.81
2023-05-02T06:28:40.017Z,98593.59
2023-05-02T06:31:44.599Z,98597.00
2023-05-02T06:34:50.684Z,98609.06
2023-05-02T06:37:55.539Z,98600.28
2023-05-02T06:41:03.762Z,98598.06
2023-05-02T06:44:08.223Z,98603.47
2023-05-02T06:47:12.734Z,98610.13
2023-05-02T06:50:19.871Z,98614.69
2023-05-02T06:53:25.090Z,98616.81
2023-05-02T06:56:29.911Z,98620.03
2023-05-02T06:59:39.058Z,98611.53
2023-05-02T07:02:43.781Z,98619.44
2023-05-02T07:05:49.824Z,98627.44
2023-05-02T07:08:54.441Z,98636.25
2023-05-02T07:11:59.096Z,98631.25
2023-05-02T07:15:03.653Z,98640.84
2023-05-02T07:18:08.310Z,98646.75
2023-05-02T07:21:14.159Z,98645.72
2023-05-02T07:24:19.073Z,98648.22
2023-05-02T07:27:24.027Z,98643.84
2023-05-02T07:30:29.380Z,98643.06
2023-05-02T07:33:34.446Z,98656.84
2023-05-02T07:36:41.244Z,98660.63
2023-05-02T07:39:51.540Z,98664.16
2023-05-02T07:42:56.091Z,98671.06
2023-05-02T07:46:09.857Z,98666.03
2023-05-02T07:49:15.929Z,98671.25
2023-05-02T07:52:26.232Z,98678.75
2023-05-02T07:55:34.642Z,98679.81
2023-05-02T07:58:39.150Z,98681.03
2023-05-02T08:01:44.554Z,98683.94
2023-05-02T08:04:49.639Z,98684.81
2023-05-02T08:07:55.814Z,98690.66
2023-05-02T08:11:00.693Z,98690.63
2023-05-02T08:14:05.004Z,98685.88
2023-05-02T08:17:09.519Z,98696.94
2023-05-02T08:20:14.182Z,98691.03
2023-05-02T08:23:20.660Z,98693.53
2023-05-02T08:26:25.036Z,98695.25
2023-05-02T08:29:30.072Z,98696.41
2023-05-02T08:32:35.038Z,98707.66
2023-05-02T08:35:40.377Z,98707.28
2023-05-02T08:38:48.939Z,98701.84
2023-05-02T08:41:54.300Z,98712.97
2023-05-02T08:45:04.297Z,98715.69
2023-05-02T08:48:12.147Z,98715.28
2023-05-02T08:51:22.797Z,98720.31
2023-05-02T08:54:30.036Z,98713.00
2023-05-02T08:57:34.928Z,98723.66
2023-05-02T09:00:42.608Z,98717.78
2023-05-02T09:03:52.579Z,98734.50
2023-05-02T09:06:57.797Z,98730.78
2023-05-02T09:10:05.977Z,98733.47
2023-05-02T09:13:34.412Z,98734.75
2023-05-02T09:16:45.873Z,98741.84
2023-05-02T09:20:02.390Z,98735.38
2023-05-02T09:23:07.576Z,98740.59
2023-05-02T09:26:20.694Z,98739.72
2023-05-02T09:29:25.725Z,98743.28
2023-05-02T09:32:51.451Z,98748.28
2023-05-02T09:35:59.804Z,98752.63
2023-05-02T09:39:16.576Z,98749.91
2023-05-02T09:42:33.192Z,98755.25
2023-05-02T09:45:38.175Z,98760.84
2023-05-02T09:48:57.315Z,98760.75
2023-05-02T09:52:13.172Z,98770.84
2023-05-02T09:55:22.966Z,98770.44
2023-05-02T09:58:31.055Z,98774.00
2023-05-02T10:01:35.887Z,98773.19
2023-05-02T10:04:48.904Z,98772.31
2023-05-02T10:07:53.837Z,98780.91
2023-05-02T10:11:01.382Z,98772.91
2023-05-02T10:14:13.706Z,98779.06
2023-05-02T10:17:30.017Z,98788.59
2023-05-02T10:20:44.153Z,98783.38
2023-05-02T10:23:50.490Z,98796.69
2023-05-02T10:26:56.132Z,98790.22
2023-05-02T10:30:04.590Z,98790.84
2023-05-02T10:33:09.558Z,98794.59
2023-05-02T10:36:14.514Z,98793.34
2023-05-02T10:39:20.076Z,98800.47
2023-05-02T10:42:25.406Z,98796.97
2023-05-02T10:45:35.854Z,98797.63
2023-05-02T10:48:40.892Z,98804.31
2023-05-02T10:51:45.491Z,98796.75
2023-05-02T10:54:50.930Z,98789.09
2023-05-02T10:58:23.850Z,98790.75
2023-05-02T11:01:40.241Z,98808.41
2023-05-02T11:05:09.721Z,98806.81
2023-05-02T11:08:33.204Z,98812.28
2023-05-02T11:11:43.285Z,98809.78
2023-05-02T11:14:50.309Z,98810.97
2023-05-02T11:18:08.201Z,98816.41
2023-05-02T11:21:30.034Z,98824.97
2023-05-02T11:24:41.677Z,98838.97
2023-05-02T11:27:49.452Z,98842.28
2023-05-02T11:30:55.412Z,98842.28
2023-05-02T11:34:03.367Z,98854.38
2023-05-02T11:37:14.930Z,98850.22
2023-05-02T11:40:20.778Z,98862.34
2023-05-02T11:43:28.716Z,98859.38
2023-05-02T11:46:35.581Z,98866.84
2023-05-02T11:49:41.629Z,98866.22
2023-05-02T11:52:51.660Z,98875.25
2023-05-02T11:56:00.175Z,98881.28
2023-05-02T11:59:06.805Z,98876.22
2023-05-02T12:02:11.301Z,98881.84
2023-05-02T12:05:31.841Z,98885.16
2023-05-02T12:08:36.083Z,98883.91
2023-05-02T12:11:40.716Z,98894.69
2023-05-02T12:14:45.658Z,98888.41
2023-05-02T12:17:52.466Z,98880.34
2023-05-02T12:20:59.101Z,98891.19
2023-05-02T12:24:05.309Z,98890.25
2023-05-02T12:27:15.110Z,98889.53
2023-05-02T12:30:28.553Z,98890.25
2023-05-02T12:33:44.511Z,98898.81
2023-05-02T12:36:50.632Z,98894.69
2023-05-02T12:40:01.042Z,98888.94
2023-05-02T12:43:10.749Z,98896.41
2023-05-02T12:46:16.308Z,98892.69
2023-05-02T12:49:21.006Z,98892.22
2023-05-02T12:52:59.447Z,98884.03
2023-05-02T12:56:04.982Z,98889.56
2023-05-02T12:59:10.404Z,98887.28
2023-05-02T13:02:15.510Z,98894.22
2023-05-02T13:05:21.947Z,98892.81
2023-05-02T13:08:27.813Z,98886.16
2023-05-02T13:11:33.117Z,98884.59
2023-05-02T13:14:43.203Z,98887.50
2023-05-02T13:17:49.093Z,98888.13
2023-05-02T13:20:54.072Z,98896.31
2023-05-02T13:24:04.543Z,98892.28
2023-05-02T13:27:09.687Z,98900.53
2023-05-02T13:30:14.677Z,98896.25
2023-05-02T13:33:19.654Z,98903.91
2023-05-02T13:36:24.908Z,98899.28
2023-05-02T13:39:31.006Z,98894.03
2023-05-02T13:42:35.940Z,98897.19
2023-05-02T13:45:47.850Z,98910.63
2023-05-02T13:48:52.830Z,98898.09
2023-05-02T13:51:57.399Z,98899.47
2023-05-02T13:55:03.596Z,98896.59
2023-05-02T13:58:08.301Z,98889.38
2023-05-02T14:01:12.640Z,98888.63
2023-05-02T14:04:17.433Z,98890.22
2023-05-02T14:07:21.589Z,98889.50
2023-05-02T14:10:27.674Z,98889.00
2023-05-02T14:13:31.718Z,98893.50
2023-05-02T14:16:36.512Z,98889.53
2023-05-02T14:19:40.884Z,98892.03
2023-05-02T14:22:45.408Z,98897.44
2023-05-02T14:25:50.935Z,98891.00
2023-05-02T14:28:55.720Z,98891.00
2023-05-02T14:32:07.351Z,98891.38
2023-05-02T14:35:12.787Z,98889.63
2023-05-02T14:38:17.030Z,98889.63
2023-05-02T14:41:24.329Z,98890.03
2023-05-02T14:44:28.664Z,98896.75
2023-05-02T14:47:34.624Z,98892.53
2023-05-02T14:50:40.243Z,98895.19
2023-05-02T14:53:45.475Z,98899.94
2023-05-02T14:56:53.142Z,98896.59
2023-05-02T14:59:58.075Z,98902.66
2023-05-02T15:03:04.396Z,98907.44
2023-05-02T15:06:10.543Z,98911.31
2023-05-02T15:09:14.876Z,98919.22
2023-05-02T15:12:20.780Z,98916.56
2023-05-02T15:15:25.673Z,98929.44
2023-05-02T15:18:30.575Z,98934.94
2023-05-02T15:21:35.533Z,98935.31
2023-05-02T15:24:40.180Z,98945.63
2023-05-02T15:27:46.245Z,98946.31
2023-05-02T15:30:51.251Z,98944.09
2023-05-02T15:33:55.870Z,98948.59
2023-05-02T15:37:02.243Z,98947.38
2023-05-02T15:40:09.286Z,98950.78
2023-05-02T15:43:15.755Z,98950.72
2023-05-02T15:46:20.605Z,98956.97
2023-05-02T15:49:31.913Z,98963.69
2023-05-02T15:52:36.436Z,98962.91
2023-05-02T15:55:48.024Z,98966.19
2023-05-02T15:58:54.194Z,98966.41
2023-05-02T16:02:04.217Z,98972.56
2023-05-02T16:05:09.437Z,98972.56
2023-05-02T16:08:14.501Z,98973.97
2023-05-02T16:11:19.079Z,98970.69
2023-05-02T16:14:26.914Z,98973.59
2023-05-02T16:17:31.363Z,98977.16
2023-05-02T16:20:37.416Z,98972.47
2023-05-02T16:23:42.473Z,98973.88
2023-05-02T16:26:47.467Z,98977.59
2023-05-02T16:29:53.078Z,98985.72
2023-05-02T16:32:57.897Z,98991.13
2023-05-02T16:36:03.012Z,98991.13
2023-05-02T16:39:07.574Z,98988.97
2023-05-02T16:42:15.666Z,98986.81
2023-05-02T16:45:21.864Z,98991.31
2023-05-02T16:48:26.064Z,98985.31
2023-05-02T16:51:34.717Z,98991.84
2023-05-02T16:54:39.173Z,98988.53
2023-05-02T16:57:43.815Z,98988.06
2023-05-02T17:00:49.365Z,98994.66
2023-05-02T17:03:53.899Z,98981.53
2023-05-02T17:06:58.062Z,98991.03
2023-05-02T17:10:09.590Z,98996.13
2023-05-02T17:13:13.890Z,99002.91
2023-05-02T17:16:20.821Z,98997.22
2023-05-02T17:19:26.218Z,98994.91
2023-05-02T17:22:31.124Z,98999.63
2023-05-02T17:25:35.424Z,98998.13
2023-05-02T17:28:43.676Z,99003.06
2023-05-02T17:31:49.284Z,99012.19
2023-05-02T17:34:53.917Z,99000.06
2023-05-02T17:37:58.360Z,99019.47
2023-05-02T17:41:03.254Z,99017.88
2023-05-02T17:44:07.494Z,99030.25
2023-05-02T17:47:13.581Z,99025.94
2023-05-02T17:50:17.813Z,99035.41
2023-05-02T17:53:22.825Z,99042.00
2023-05-02T17:56:26.917Z,99046.91
2023-05-02T17:59:31.624Z,99045.22
2023-05-02T18:02:38.703Z,99052.66
2023-05-02T18:05:44.562Z,99045.94
2023-05-02T18:08:48.611Z,99048.31
2023-05-02T18:11:53.673Z,99058.63
2023-05-02T18:14:57.656Z,99063.88
2023-05-02T18:18:07.808Z,99068.78
2023-05-02T18:21:12.136Z,99065.59
2023-05-02T18:24:16.680Z,99070.63
2023-05-02T18:27:21.023Z,99071.19
2023-05-02T18:30:25.704Z,99079.28
2023-05-02T18:33:31.443Z,99082.31
2023-05-02T18:36:41.664Z,99087.59
2023-05-02T18:39:46.384Z,99096.16
2023-05-02T18:42:56.852Z,99099.69
2023-05-02T18:46:01.023Z,99098.88
2023-05-02T18:49:09.282Z,99102.41
2023-05-02T18:52:13.489Z,99102.75
2023-05-02T18:55:18.234Z,99112.84
2023-05-02T18:58:22.710Z,99112.66
2023-05-02T19:01:27.384Z,99123.09
2023-05-02T19:04:34.072Z,99128.47
2023-05-02T19:07:43.616Z,99130.81
2023-05-02T19:10:47.814Z,99127.06
2023-05-02T19:13:52.614Z,99140.38
2023-05-02T19:16:57.021Z,99141.31
2023-05-02T19:20:06.688Z,99149.69
2023-05-02T19:23:20.138Z,99139.94
2023-05-02T19:26:25.693Z,99154.41
2023-05-02T19:29:30.214Z,99148.84
2023-05-02T19:32:34.728Z,99155.69
2023-05-02T19:35:40.561Z,99162.03
2023-05-02T19:38:48.615Z,99159.66
2023-05-02T19:41:52.921Z,99172.41
2023-05-02T19:44:57.362Z,99175.25
2023-05-02T19:48:01.546Z,99175.41
2023-05-02T19:51:08.133Z,99187.47
2023-05-02T19:54:12.289Z,99189.81
2023-05-02T19:57:18.143Z,99186.44
2023-05-02T20:00:22.375Z,99179.84
2023-05-02T20:03:27.201Z,99184.84
2023-05-02T20:06:34.140Z,99182.97
2023-05-02T20:09:38.634Z,99182.53
2023-05-02T20:12:45.107Z,99178.78
2023-05-02T20:15:52.051Z,99184.41
2023-05-02T20:18:56.302Z,99181.34
